KLBE/LBE METAR and TAF weather

Enter ICAO airport designator
Station Type Date Time Source
KLBE METAR 2019/10/18 10:53 UTC NOAA

KLBE 181053Z 24007KT 10SM FEW047 02/02 A3001


Station Type Date Time Source
KLBE Decoded METAR 2019/10/18 10:53 UTC NOAA

Latrobe / Westmorland, PA, United States (KLBE) 40-17N 079-24W
Oct 18, 2019 - 06:53 AM EDT / 2019.10.18 1053 UTC
Wind: from the WSW (240 degrees) at 8 MPH (7 KT):0
Visibility: 10 mile(s):0
Sky conditions: mostly clear
Temperature: 35 F (2 C)
Windchill: 28 F (-2 C):1
Dew Point: 35 F (2 C)
Relative Humidity: 100%
Pressure (altimeter): 30.01 in. Hg (1016 hPa)
ob: KLBE 181053Z 24007KT 10SM FEW047 02/02 A3001
cycle: 11

Station Type Date Time Source
KLBE TAF 2019/10/18 12:30 UTC NOAA

TAF KLBE 181129Z 1812/1912 23004KT P6SM SCT050
FM181600 31009KT P6SM BKN050
FM190000 VRB04KT P6SM SKC
FM190900 VRB03KT 5SM BR SKC

Example: see airport list